CheckWX is a tool to help pilots better visualize weather data.  It is not intended as a substitute for an official pre-flight weather briefing.

08:14:54 UTC

KOLF METAR
L M Clayton Airport
Wolf Point, Montana, USA
Current

22 mins ago

KOLF 220753Z AUTO 04003KT 10SM CLR M28/M31 A3021 RMK AO2 SLP289 T12781306 $
Observed
Feb-22 @ 07:53 UTC
Wind
  • 040° at 3 KTS
Visibility
10 SM
Flight Rules
VFR
Cloud Levels
  • Clear skies
Temperature
-28°C / -18°F
Dewpoint
-31°C / -24°F
Humidity
75%
Altimeter
30.21" Hg
Pressure
1028.9 hPa
Previous

1 hour ago

KOLF 220653Z AUTO 06003KT 10SM CLR M27/M29 A3022 RMK AO2 SLP291 T12721294 411171278 $
Observed
Feb-22 @ 06:53 UTC
Wind
  • 060° at 3 KTS
Visibility
10 SM
Flight Rules
VFR
Cloud Levels
  • Clear skies
Temperature
-27°C / -17°F
Dewpoint
-29°C / -20°F
Humidity
83%
Altimeter
30.22" Hg
Pressure
1029.1 hPa
Previous

2 hours ago

KOLF 220553Z AUTO 00000KT 10SM CLR M28/M30 A3023 RMK AO2 SLP295 I6000 T12781300 11144 21278 50001 $
Observed
Feb-22 @ 05:53 UTC
Visibility
10 SM
Flight Rules
VFR
Cloud Levels
  • Clear skies
Temperature
-28°C / -18°F
Dewpoint
-30°C / -22°F
Humidity
83%
Altimeter
30.23" Hg
Pressure
1029.5 hPa